aviador You're here:

YPXM Decoded Metar

CHRISTMAS ISLAND in CHRISTMAS ISLAND
Report Time2017-05-26 11:00:00
UTC Time2017-05-26 11:17:40
Flight Rules mvfr MVFR
Wind130° at 12 kt
W.Decomp.*RWY 18: 7.6 kt HW 9.3 kt LCW
W.Rank130° ranks 1
Current wind is above 130° avg. (9.1)
Visibility9999 m
Phenomena:N/A
Clouds:Broken 012 Hf
Overcast 017 Hf
Expected CloudBase > 800 ft AGL from Temp-Dew spread
Ceiling1,200 ft
Temp25°C (ISA +12)
Dew Point23°C (89% RH)
QNH1012 hPa
Density Alt2,608 ft
Elevation850 ft
Report Wrong Elevation
Raw Report
METAR YPXM 261100Z AUTO 13012KT 9999 // BKN012 OVC017 25/23 Q1012=

Extra information for YPXM:More info

Metar Taf Metar & Taf Last 4 Metars F.Rules Stats Wind Profile Meteogram Temp Stats Airport Information Weather charts Add Link Nearby VenuesMetar ALERT Operation Metar Decoded Social comments